createdAt,value
2022-11-16T00:01:03.451Z,213.13
2022-11-16T00:03:05.404Z,197.27
2022-11-16T00:05:07.507Z,179.10
2022-11-16T00:07:09.544Z,185.45
2022-11-16T00:09:11.536Z,179.52
2022-11-16T00:11:13.612Z,170.82
2022-11-16T00:13:15.547Z,178.82
2022-11-16T00:15:17.478Z,193.77
2022-11-16T00:17:19.665Z,171.93
2022-11-16T00:19:21.595Z,171.73
2022-11-16T00:21:23.564Z,181.38
2022-11-16T00:23:25.614Z,182.57
2022-11-16T00:25:27.557Z,166.52
2022-11-16T00:27:29.533Z,177.75
2022-11-16T00:29:31.596Z,188.90
2022-11-16T00:31:33.535Z,192.30
2022-11-16T00:33:35.506Z,215.02
2022-11-16T00:35:37.577Z,219.25
2022-11-16T00:37:39.510Z,190.93
2022-11-16T00:39:41.461Z,203.60
2022-11-16T00:41:43.579Z,196.43
2022-11-16T00:43:45.721Z,192.32
2022-11-16T00:45:47.675Z,191.20
2022-11-16T00:47:49.970Z,194.27
2022-11-16T00:49:51.953Z,188.82
2022-11-16T00:51:54.003Z,184.40
2022-11-16T00:53:55.940Z,186.30
2022-11-16T00:55:57.902Z,174.25
2022-11-16T00:58:00.182Z,178.90
2022-11-16T01:00:02.167Z,181.73
2022-11-16T01:02:04.156Z,185.50
2022-11-16T01:04:06.182Z,182.57
2022-11-16T01:06:08.158Z,186.13
2022-11-16T01:08:10.101Z,192.32
2022-11-16T01:10:12.065Z,193.52
2022-11-16T01:12:14.014Z,189.68
2022-11-16T01:14:16.023Z,190.23
2022-11-16T01:16:18.096Z,180.30
2022-11-16T01:18:20.075Z,187.43
2022-11-16T01:20:21.883Z,173.02
2022-11-16T01:22:23.907Z,192.15
2022-11-16T01:24:25.846Z,181.63
2022-11-16T01:26:27.815Z,188.57
2022-11-16T01:28:29.828Z,177.25
2022-11-16T01:30:31.864Z,191.55
2022-11-16T01:32:33.846Z,193.38
2022-11-16T01:34:35.788Z,199.57
2022-11-16T01:36:37.759Z,218.23
2022-11-16T01:38:39.735Z,198.30
2022-11-16T01:40:41.844Z,192.98
2022-11-16T01:42:43.818Z,176.02
2022-11-16T01:44:45.764Z,179.38
2022-11-16T01:46:47.862Z,194.07
2022-11-16T01:48:49.885Z,194.93
2022-11-16T01:50:51.864Z,168.85
2022-11-16T01:52:53.772Z,185.50
2022-11-16T01:54:55.719Z,190.88
2022-11-16T01:56:57.659Z,198.80
2022-11-16T01:58:59.783Z,211.95
2022-11-16T02:01:02.006Z,220.15
2022-11-16T02:03:04.021Z,216.52
2022-11-16T02:05:06.164Z,205.40
2022-11-16T02:07:08.192Z,224.40
2022-11-16T02:09:10.175Z,237.70
2022-11-16T02:11:12.203Z,264.42
2022-11-16T02:13:14.162Z,278.92
2022-11-16T02:15:16.121Z,300.85
2022-11-16T02:17:18.215Z,304.00
2022-11-16T02:19:20.197Z,313.02
2022-11-16T02:23:24.434Z,280.30
2022-11-16T02:25:26.382Z,261.38
2022-11-16T02:27:28.359Z,263.42
2022-11-16T02:29:30.413Z,277.05
2022-11-16T02:31:32.354Z,281.88
2022-11-16T02:33:34.330Z,273.95
2022-11-16T02:35:36.493Z,270.00
2022-11-16T02:37:38.452Z,295.67
2022-11-16T02:39:40.552Z,300.38
2022-11-16T02:41:42.638Z,302.25
2022-11-16T02:43:44.619Z,294.05
2022-11-16T02:45:46.693Z,310.40
2022-11-16T02:47:48.657Z,280.98
2022-11-16T02:49:50.612Z,270.00
2022-11-16T02:51:52.583Z,289.65
2022-11-16T02:53:54.518Z,290.70
2022-11-16T02:55:56.458Z,295.80
2022-11-16T02:57:58.434Z,298.08
2022-11-16T03:00:00.409Z,305.48
2022-11-16T03:02:02.379Z,308.33
2022-11-16T03:04:04.499Z,282.90
2022-11-16T03:06:06.489Z,284.52
2022-11-16T03:08:08.467Z,290.98
2022-11-16T03:10:10.584Z,283.92
2022-11-16T03:12:12.593Z,290.50
2022-11-16T03:14:14.572Z,299.45
2022-11-16T03:16:16.650Z,293.73
2022-11-16T03:18:18.612Z,284.80
2022-11-16T03:20:20.570Z,292.80
2022-11-16T03:22:22.642Z,297.85
2022-11-16T03:24:24.610Z,288.45
2022-11-16T03:26:26.756Z,303.20
2022-11-16T03:28:28.740Z,274.58
2022-11-16T03:30:30.666Z,263.52
2022-11-16T03:32:32.671Z,268.10
2022-11-16T03:34:34.634Z,239.43
2022-11-16T03:36:36.603Z,230.25
2022-11-16T03:38:38.670Z,220.30
2022-11-16T03:40:40.603Z,230.75
2022-11-16T03:42:42.765Z,215.80
2022-11-16T03:44:44.703Z,218.27
2022-11-16T03:46:46.659Z,211.10
2022-11-16T03:48:48.611Z,232.80
2022-11-16T03:50:50.577Z,210.88
2022-11-16T03:52:52.552Z,208.77
2022-11-16T03:54:54.627Z,197.50
2022-11-16T03:56:56.563Z,204.18
2022-11-16T03:58:58.632Z,181.25
2022-11-16T04:01:00.689Z,201.43
2022-11-16T04:03:02.686Z,209.48
2022-11-16T04:05:04.775Z,198.00
2022-11-16T04:07:06.807Z,205.32
2022-11-16T04:09:08.788Z,216.85
2022-11-16T04:11:10.732Z,221.40
2022-11-16T04:13:12.694Z,220.25
2022-11-16T04:15:14.846Z,209.63
2022-11-16T04:17:16.804Z,227.60
2022-11-16T04:19:18.723Z,217.13
2022-11-16T04:21:20.826Z,211.32
2022-11-16T04:23:22.773Z,222.30
2022-11-16T04:25:24.720Z,222.02
2022-11-16T04:27:26.808Z,224.93
2022-11-16T04:29:28.752Z,232.65
2022-11-16T04:31:30.910Z,227.52
2022-11-16T04:33:32.855Z,235.07
2022-11-16T04:35:34.832Z,212.25
2022-11-16T04:37:36.823Z,222.07
2022-11-16T04:39:38.751Z,211.82
2022-11-16T04:41:40.699Z,207.75
2022-11-16T04:43:42.641Z,217.38
2022-11-16T04:45:44.575Z,219.73
2022-11-16T04:47:46.634Z,210.27
2022-11-16T04:49:48.581Z,214.93
2022-11-16T04:51:50.525Z,228.60
2022-11-16T04:53:52.635Z,202.35
2022-11-16T04:55:59.557Z,193.68
2022-11-16T04:58:02.876Z,215.98
2022-11-16T05:00:04.828Z,214.93
2022-11-16T05:02:06.755Z,199.88
2022-11-16T05:04:08.908Z,206.20
2022-11-16T05:06:10.709Z,199.88
2022-11-16T05:08:12.665Z,191.95
2022-11-16T05:10:14.808Z,208.43
2022-11-16T05:12:16.743Z,199.50
2022-11-16T05:14:18.712Z,194.30
2022-11-16T05:16:20.676Z,197.55
2022-11-16T05:18:22.499Z,198.82
2022-11-16T05:20:24.627Z,201.77
2022-11-16T05:24:28.613Z,182.40
2022-11-16T05:26:30.702Z,207.27
2022-11-16T05:28:32.972Z,211.75
2022-11-16T05:32:36.905Z,211.05
2022-11-16T05:34:38.862Z,196.15
2022-11-16T05:36:40.785Z,199.15
2022-11-16T05:38:42.762Z,210.40
2022-11-16T05:40:44.718Z,193.27
2022-11-16T05:42:46.659Z,189.95
2022-11-16T05:44:48.698Z,190.82
2022-11-16T05:46:50.707Z,187.80
2022-11-16T05:48:52.880Z,186.13
2022-11-16T05:50:54.920Z,200.55
2022-11-16T05:52:56.992Z,193.90
2022-11-16T05:54:58.925Z,188.07
2022-11-16T05:57:00.893Z,209.52
2022-11-16T05:59:02.847Z,182.48
2022-11-16T06:01:04.812Z,197.52
2022-11-16T06:03:06.776Z,206.13
2022-11-16T06:05:08.906Z,194.98
2022-11-16T06:07:10.904Z,210.00
2022-11-16T06:09:13.051Z,186.40
2022-11-16T06:11:14.999Z,193.05
2022-11-16T06:13:16.992Z,182.55
2022-11-16T06:15:19.041Z,191.15
2022-11-16T06:17:20.968Z,219.90
2022-11-16T06:19:23.779Z,194.65
2022-11-16T06:21:27.903Z,194.10
2022-11-16T06:23:29.876Z,176.40
2022-11-16T06:25:32.020Z,166.70
2022-11-16T06:27:34.048Z,167.30
2022-11-16T06:29:36.211Z,172.80
2022-11-16T06:31:38.330Z,175.82
2022-11-16T06:33:40.118Z,179.30
2022-11-16T06:35:42.091Z,185.32
2022-11-16T06:37:44.048Z,187.93
2022-11-16T06:39:46.043Z,180.18
2022-11-16T06:41:48.154Z,167.32
2022-11-16T06:43:50.089Z,159.35
2022-11-16T06:45:52.065Z,164.38
2022-11-16T06:47:54.124Z,165.02
2022-11-16T06:49:56.115Z,160.90
2022-11-16T06:51:58.086Z,157.88
2022-11-16T06:54:00.207Z,164.02
2022-11-16T06:56:02.162Z,155.38
2022-11-16T06:58:04.238Z,155.00
2022-11-16T07:00:06.167Z,164.15
2022-11-16T07:02:08.196Z,177.45
2022-11-16T07:04:10.101Z,173.40
2022-11-16T07:06:12.119Z,169.95
2022-11-16T07:08:14.108Z,172.63
2022-11-16T07:10:16.285Z,172.15
2022-11-16T07:12:18.234Z,166.23
2022-11-16T07:14:20.281Z,168.68
2022-11-16T07:16:22.230Z,175.88
2022-11-16T07:18:24.200Z,151.25
2022-11-16T07:20:26.337Z,169.85
2022-11-16T07:22:28.274Z,170.02
2022-11-16T07:24:30.231Z,161.07
2022-11-16T07:26:32.409Z,159.68
2022-11-16T07:28:34.658Z,157.07
2022-11-16T07:32:38.721Z,160.60
2022-11-16T07:34:40.693Z,165.68
2022-11-16T07:36:42.560Z,177.32
2022-11-16T07:38:44.530Z,178.30
2022-11-16T07:40:46.507Z,173.23
2022-11-16T07:42:48.490Z,188.68
2022-11-16T07:44:50.450Z,188.05
2022-11-16T07:46:52.555Z,168.77
2022-11-16T07:48:54.573Z,172.00
2022-11-16T07:50:56.385Z,177.77
2022-11-16T07:52:58.490Z,171.15
2022-11-16T07:55:00.459Z,173.88
2022-11-16T07:57:02.453Z,182.93
2022-11-16T07:59:04.577Z,197.38
2022-11-16T08:01:06.531Z,191.95
2022-11-16T08:03:08.596Z,177.27
2022-11-16T08:05:10.570Z,191.13
2022-11-16T08:07:12.547Z,172.13
2022-11-16T08:09:14.627Z,178.20
2022-11-16T08:11:16.590Z,172.07
2022-11-16T08:13:18.536Z,191.50
2022-11-16T08:15:20.462Z,191.05
2022-11-16T08:17:22.434Z,174.13
2022-11-16T08:19:24.411Z,195.18
2022-11-16T08:21:26.376Z,186.32
2022-11-16T08:23:28.351Z,183.05
2022-11-16T08:25:30.362Z,184.48
2022-11-16T08:27:32.309Z,189.23
2022-11-16T08:29:34.248Z,197.80
2022-11-16T08:31:36.178Z,215.98
2022-11-16T08:33:37.984Z,186.90
2022-11-16T08:35:39.977Z,187.65
2022-11-16T08:37:41.909Z,184.93
2022-11-16T08:39:43.880Z,180.52
2022-11-16T08:41:45.948Z,192.70
2022-11-16T08:43:47.903Z,173.80
2022-11-16T08:45:49.887Z,194.65
2022-11-16T08:48:03.180Z,188.25
2022-11-16T08:50:05.804Z,173.85
2022-11-16T08:52:07.881Z,188.73
2022-11-16T08:54:09.830Z,191.10
2022-11-16T08:56:11.767Z,184.85
2022-11-16T08:58:13.843Z,184.82
2022-11-16T09:00:15.801Z,176.55
2022-11-16T09:02:17.743Z,193.98
2022-11-16T09:04:19.833Z,190.68
2022-11-16T09:06:21.619Z,191.00
2022-11-16T09:08:23.665Z,178.55
2022-11-16T09:10:25.631Z,188.00
2022-11-16T09:12:27.609Z,167.40
2022-11-16T09:14:29.557Z,168.90
2022-11-16T09:16:31.519Z,175.48
2022-11-16T09:18:33.645Z,174.20
2022-11-16T09:20:35.979Z,159.35
2022-11-16T09:22:37.925Z,164.60
2022-11-16T09:24:40.005Z,159.82
2022-11-16T09:26:41.978Z,164.23
2022-11-16T09:28:44.083Z,158.93
2022-11-16T09:30:46.220Z,156.35
2022-11-16T09:32:48.155Z,160.68
2022-11-16T09:34:49.967Z,128.88
2022-11-16T09:36:51.986Z,139.23
2022-11-16T09:39:25.728Z,130.35
2022-11-16T09:41:15.782Z,115.77
2022-11-16T09:43:17.787Z,114.05
2022-11-16T09:45:19.724Z,113.32
2022-11-16T09:47:21.756Z,117.13
2022-11-16T09:49:23.986Z,117.22
2022-11-16T09:51:25.841Z,111.60
2022-11-16T09:53:27.824Z,105.05
2022-11-16T09:55:29.912Z,113.82
2022-11-16T09:57:31.860Z,120.43
2022-11-16T09:59:33.832Z,112.78
2022-11-16T10:01:35.906Z,119.47
2022-11-16T10:03:37.912Z,138.38
2022-11-16T10:05:39.842Z,121.55
2022-11-16T10:07:41.871Z,121.60
2022-11-16T10:09:43.839Z,118.25
2022-11-16T10:11:45.798Z,109.35
2022-11-16T10:13:47.837Z,101.22
2022-11-16T10:15:49.804Z,126.20
2022-11-16T10:17:51.777Z,108.43
2022-11-16T10:19:53.899Z,105.80
2022-11-16T10:21:58.038Z,125.78
2022-11-16T10:23:59.985Z,99.85
2022-11-16T10:26:02.098Z,98.55
2022-11-16T10:28:04.031Z,105.82
2022-11-16T10:30:05.987Z,109.28
2022-11-16T10:32:08.159Z,114.40
2022-11-16T10:34:09.983Z,100.53
2022-11-16T10:36:11.968Z,108.85
2022-11-16T10:38:14.084Z,99.22
2022-11-16T10:40:16.061Z,111.43
2022-11-16T10:42:20.115Z,129.98
2022-11-16T10:44:22.051Z,106.75
2022-11-16T10:46:24.020Z,101.15
2022-11-16T10:48:25.953Z,88.30
2022-11-16T10:50:27.778Z,63.97
2022-11-16T10:52:29.720Z,73.53
2022-11-16T10:54:31.669Z,56.20
2022-11-16T10:56:33.692Z,54.42
2022-11-16T10:58:35.656Z,62.20
2022-11-16T11:00:37.634Z,58.05
2022-11-16T11:02:39.742Z,48.90
2022-11-16T11:04:41.683Z,153.52
2022-11-16T11:06:43.776Z,102.35
2022-11-16T11:08:45.835Z,81.13
2022-11-16T11:10:47.808Z,52.25
2022-11-16T11:12:49.757Z,46.83
2022-11-16T11:14:51.782Z,49.92
2022-11-16T11:16:53.717Z,53.00
2022-11-16T11:18:55.671Z,45.72
2022-11-16T11:20:57.744Z,47.63
2022-11-16T11:25:01.538Z,48.40
2022-11-16T11:27:03.508Z,52.85
2022-11-16T11:29:05.458Z,41.40
2022-11-16T11:31:07.419Z,51.50
2022-11-16T11:33:09.492Z,47.65
2022-11-16T11:37:13.199Z,45.47
2022-11-16T11:39:15.301Z,50.53
2022-11-16T11:43:19.161Z,43.17
2022-11-16T11:49:44.616Z,38.77
2022-11-16T11:51:46.778Z,35.42
2022-11-16T11:53:48.606Z,35.78
2022-11-16T11:55:50.654Z,38.95
2022-11-16T11:57:52.588Z,37.97
2022-11-16T11:59:54.567Z,37.80
2022-11-16T12:01:56.546Z,36.83
2022-11-16T12:03:58.515Z,29.75
2022-11-16T12:06:00.461Z,31.17
2022-11-16T12:08:02.426Z,42.45
2022-11-16T12:12:09.270Z,30.47
2022-11-16T12:14:15.505Z,33.22
2022-11-16T12:18:19.235Z,34.30
2022-11-16T12:20:21.386Z,33.63
2022-11-16T12:24:24.968Z,35.50
2022-11-16T12:26:27.075Z,30.42
2022-11-16T12:30:30.802Z,33.37
2022-11-16T12:32:32.735Z,31.70
2022-11-16T12:34:34.678Z,30.65
2022-11-16T12:36:36.631Z,29.92
2022-11-16T12:38:38.724Z,34.58
2022-11-16T12:42:42.415Z,28.10
2022-11-16T12:44:44.514Z,28.90
2022-11-16T12:48:48.197Z,31.27
2022-11-16T12:50:50.300Z,28.65
2022-11-16T12:55:24.187Z,27.00
2022-11-16T12:57:15.912Z,30.77
2022-11-16T12:59:17.863Z,30.55
2022-11-16T13:01:19.870Z,29.67
2022-11-16T13:03:21.849Z,27.05
2022-11-16T13:07:26.165Z,26.70
2022-11-16T13:11:30.133Z,28.63
2022-11-16T13:15:53.475Z,26.73
2022-11-16T13:17:55.595Z,32.35
2022-11-16T13:21:59.253Z,26.97
2022-11-16T13:24:01.197Z,27.85
2022-11-16T13:26:03.131Z,29.08
2022-11-16T13:28:05.062Z,30.23
2022-11-16T13:30:07.114Z,28.73
2022-11-16T13:34:10.855Z,26.30
2022-11-16T13:36:12.919Z,27.30
2022-11-16T13:38:14.863Z,25.88
2022-11-16T13:40:16.818Z,28.13
2022-11-16T13:42:18.899Z,28.67
2022-11-16T13:46:54.210Z,34.30
2022-11-16T13:48:44.514Z,29.88
2022-11-16T13:50:46.459Z,27.48
2022-11-16T13:53:46.156Z,26.85
2022-11-16T13:55:10.347Z,30.48
2022-11-16T13:57:12.363Z,26.80
2022-11-16T14:01:16.147Z,29.47
2022-11-16T14:05:20.704Z,27.35
2022-11-16T14:07:22.686Z,29.05
2022-11-16T14:11:33.834Z,28.50
2022-11-16T14:13:36.097Z,27.42
2022-11-16T14:15:38.398Z,36.10
2022-11-16T14:17:40.335Z,31.02
2022-11-16T14:19:42.308Z,33.50
2022-11-16T14:21:44.269Z,29.65
2022-11-16T14:23:46.243Z,30.05
2022-11-16T14:25:48.183Z,27.13
2022-11-16T14:27:50.271Z,24.27
2022-11-16T14:31:53.934Z,27.17
2022-11-16T14:33:56.009Z,29.30
2022-11-16T14:37:59.680Z,30.27
2022-11-16T14:40:01.687Z,29.55
2022-11-16T14:42:03.627Z,41.17
2022-11-16T14:44:05.583Z,40.33
2022-11-16T14:46:07.641Z,38.17
2022-11-16T14:48:09.835Z,36.63
2022-11-16T14:50:11.773Z,40.83
2022-11-16T14:52:13.763Z,45.50
2022-11-16T14:56:17.490Z,42.37
2022-11-16T14:58:19.595Z,41.05
2022-11-16T15:02:23.311Z,38.63
2022-11-16T15:04:25.526Z,41.95
2022-11-16T15:06:27.461Z,40.08
2022-11-16T15:08:29.291Z,39.03
2022-11-16T15:10:31.439Z,38.83
2022-11-16T15:12:33.420Z,36.15
2022-11-16T15:14:35.388Z,33.20
2022-11-16T15:16:37.514Z,37.30
2022-11-16T15:20:42.514Z,42.72
2022-11-16T15:22:44.418Z,29.80
2022-11-16T15:26:48.099Z,39.37
2022-11-16T15:28:50.337Z,34.38
2022-11-16T15:30:52.322Z,34.83
2022-11-16T15:32:54.277Z,32.92
2022-11-16T15:34:58.898Z,39.90
2022-11-16T15:37:03.109Z,33.80
2022-11-16T15:39:05.082Z,38.70
2022-11-16T15:41:07.143Z,37.88
2022-11-16T15:45:15.671Z,32.73
2022-11-16T15:47:18.003Z,30.50
2022-11-16T15:51:21.697Z,34.87
2022-11-16T15:53:23.491Z,42.45
2022-11-16T15:55:25.497Z,40.85
2022-11-16T15:59:29.351Z,37.30
2022-11-16T16:01:31.337Z,31.33
2022-11-16T16:03:33.604Z,33.58
2022-11-16T16:05:35.959Z,32.13
2022-11-16T16:07:37.990Z,35.42
2022-11-16T16:09:39.931Z,33.30
2022-11-16T16:11:41.983Z,30.40
2022-11-16T16:15:45.665Z,29.37
2022-11-16T16:17:47.634Z,31.77
2022-11-16T16:19:49.446Z,32.33
2022-11-16T16:21:51.245Z,29.73
2022-11-16T16:23:53.307Z,28.92
2022-11-16T16:27:57.112Z,30.67
2022-11-16T16:29:59.150Z,33.47
2022-11-16T16:32:01.106Z,34.90
2022-11-16T16:34:03.094Z,32.42
2022-11-16T16:36:05.114Z,31.80
2022-11-16T16:40:09.148Z,36.30
2022-11-16T16:42:11.107Z,31.33
2022-11-16T16:44:14.245Z,30.33
2022-11-16T16:46:16.457Z,30.52
2022-11-16T16:48:18.522Z,34.90
2022-11-16T16:50:20.378Z,37.70
2022-11-16T16:52:22.335Z,41.00
2022-11-16T16:54:24.579Z,29.20
2022-11-16T16:56:26.561Z,31.15
2022-11-16T16:58:28.929Z,33.25
2022-11-16T17:00:31.421Z,36.75
2022-11-16T17:04:35.864Z,34.00
2022-11-16T17:06:39.270Z,40.63
2022-11-16T17:08:44.391Z,38.67
2022-11-16T17:12:48.202Z,34.73
2022-11-16T17:14:50.146Z,31.23
2022-11-16T17:16:52.221Z,33.35
2022-11-16T17:20:55.909Z,38.30
2022-11-16T17:22:58.063Z,37.67
2022-11-16T17:27:01.904Z,37.00
2022-11-16T17:29:04.175Z,39.17
2022-11-16T17:31:06.226Z,36.97
2022-11-16T17:35:12.308Z,32.72
2022-11-16T17:37:14.661Z,36.33
2022-11-16T17:41:18.527Z,36.10
2022-11-16T17:45:22.364Z,32.23
2022-11-16T17:47:24.633Z,35.80
2022-11-16T17:49:26.607Z,35.05
2022-11-16T17:53:32.856Z,37.30
2022-11-16T17:55:35.290Z,35.33
2022-11-16T17:57:39.783Z,37.88
2022-11-16T17:59:44.921Z,36.83
2022-11-16T18:01:50.071Z,35.05
2022-11-16T18:03:52.894Z,33.88
2022-11-16T18:05:55.055Z,34.88
2022-11-16T18:09:59.011Z,33.40
2022-11-16T18:12:00.989Z,36.55
2022-11-16T18:14:02.963Z,33.10
2022-11-16T18:16:05.100Z,32.15
2022-11-16T18:18:07.048Z,35.03
2022-11-16T18:20:09.022Z,37.38
2022-11-16T18:24:12.938Z,31.67
2022-11-16T18:26:14.924Z,32.55
2022-11-16T18:28:16.963Z,36.53
2022-11-16T18:30:18.900Z,31.85
2022-11-16T18:32:20.843Z,37.95
2022-11-16T18:34:23.299Z,29.70
2022-11-16T18:38:27.099Z,37.88
2022-11-16T18:40:29.175Z,36.85
2022-11-16T18:44:33.416Z,40.45
2022-11-16T18:46:35.552Z,34.65
2022-11-16T18:48:37.542Z,34.17
2022-11-16T18:50:39.483Z,34.08
2022-11-16T18:52:41.421Z,36.05
2022-11-16T18:54:43.399Z,37.38
2022-11-16T18:56:45.364Z,34.10
2022-11-16T18:58:52.461Z,39.75
2022-11-16T19:00:55.338Z,38.22
2022-11-16T19:02:57.358Z,39.67
2022-11-16T19:04:59.471Z,40.33
2022-11-16T19:07:01.415Z,37.97
2022-11-16T19:11:05.295Z,40.33
2022-11-16T19:15:09.034Z,38.43
2022-11-16T19:17:11.131Z,37.22
2022-11-16T19:19:13.090Z,38.95
2022-11-16T19:23:17.129Z,44.15
2022-11-16T19:25:19.081Z,40.08
2022-11-16T19:27:21.191Z,41.35
2022-11-16T19:29:23.341Z,40.25
2022-11-16T19:31:25.290Z,42.83
2022-11-16T19:33:27.372Z,41.47
2022-11-16T19:37:31.107Z,36.93
2022-11-16T19:39:32.934Z,44.25
2022-11-16T19:41:34.866Z,44.72
2022-11-16T19:43:37.226Z,45.30
2022-11-16T19:45:39.361Z,38.10
2022-11-16T19:47:41.305Z,36.63
2022-11-16T19:49:43.240Z,37.97
2022-11-16T19:51:45.307Z,41.00
2022-11-16T19:53:47.215Z,38.40
2022-11-16T19:55:49.148Z,38.70
2022-11-16T19:57:51.314Z,41.85
2022-11-16T20:01:55.053Z,40.37
2022-11-16T20:05:59.043Z,38.90
2022-11-16T20:08:00.975Z,38.45
2022-11-16T20:10:02.860Z,43.83
2022-11-16T20:14:06.977Z,35.80
2022-11-16T20:18:10.964Z,37.67
2022-11-16T20:20:12.934Z,37.20
2022-11-16T20:22:14.903Z,40.78
2022-11-16T20:24:16.853Z,42.50
2022-11-16T20:26:18.791Z,35.42
2022-11-16T20:28:20.896Z,45.42
2022-11-16T20:32:24.795Z,41.65
2022-11-16T20:34:26.950Z,38.47
2022-11-16T20:36:29.046Z,38.53
2022-11-16T20:38:30.997Z,36.38
2022-11-16T20:40:32.950Z,36.28
2022-11-16T20:42:34.935Z,41.53
2022-11-16T20:44:36.909Z,37.78
2022-11-16T20:46:39.057Z,37.92
2022-11-16T20:50:42.647Z,42.53
2022-11-16T20:52:48.574Z,39.58
2022-11-16T20:54:54.471Z,40.63
2022-11-16T20:58:58.278Z,37.53
2022-11-16T21:03:02.154Z,40.42
2022-11-16T21:05:04.218Z,52.05
2022-11-16T21:09:07.881Z,41.60
2022-11-16T21:11:10.007Z,41.50
2022-11-16T21:15:13.701Z,40.67
2022-11-16T21:17:15.682Z,33.58
2022-11-16T21:21:19.390Z,37.30
2022-11-16T21:23:21.464Z,39.30
2022-11-16T21:25:23.989Z,36.58
2022-11-16T21:27:25.929Z,38.08
2022-11-16T21:29:27.893Z,35.30
2022-11-16T21:31:29.858Z,36.83
2022-11-16T21:33:32.107Z,43.97
2022-11-16T21:35:34.216Z,44.63
2022-11-16T21:39:37.904Z,37.50
2022-11-16T21:41:39.994Z,36.80
2022-11-16T21:45:43.651Z,39.07
2022-11-16T21:47:45.719Z,33.72
2022-11-16T21:52:09.418Z,35.28
2022-11-16T21:54:11.395Z,34.10
2022-11-16T21:56:13.339Z,35.13
2022-11-16T21:58:15.283Z,34.47
2022-11-16T22:00:17.346Z,35.22
2022-11-16T22:04:20.994Z,33.77
2022-11-16T22:06:23.019Z,39.63
2022-11-16T22:08:24.955Z,34.90
2022-11-16T22:10:26.888Z,35.55
2022-11-16T22:12:29.023Z,42.40
2022-11-16T22:14:31.323Z,37.72
2022-11-16T22:16:33.562Z,36.28
2022-11-16T22:18:35.516Z,35.80
2022-11-16T22:20:37.463Z,34.15
2022-11-16T22:22:39.484Z,38.38
2022-11-16T22:26:43.609Z,39.50
2022-11-16T22:30:51.440Z,35.73
2022-11-16T22:32:54.071Z,39.90
2022-11-16T22:34:56.026Z,33.78
2022-11-16T22:38:59.834Z,34.57
2022-11-16T22:41:01.768Z,34.33
2022-11-16T22:43:03.721Z,31.70
2022-11-16T22:45:05.662Z,35.58
2022-11-16T22:47:07.622Z,33.45
2022-11-16T22:49:09.988Z,32.42
2022-11-16T22:51:11.966Z,31.83
2022-11-16T22:53:13.749Z,29.95
2022-11-16T22:55:15.695Z,37.78
2022-11-16T22:57:17.763Z,33.22
2022-11-16T23:01:21.487Z,38.77
2022-11-16T23:03:23.524Z,30.13
2022-11-16T23:07:27.338Z,32.63
2022-11-16T23:09:29.302Z,33.95
2022-11-16T23:11:31.237Z,30.80
2022-11-16T23:13:33.575Z,30.42
2022-11-16T23:15:35.976Z,31.00
2022-11-16T23:19:39.625Z,27.30
2022-11-16T23:21:41.734Z,28.65
2022-11-16T23:23:43.532Z,27.88
2022-11-16T23:25:45.469Z,35.17
2022-11-16T23:27:47.592Z,33.92
2022-11-16T23:31:51.414Z,28.55
2022-11-16T23:33:53.433Z,28.40
2022-11-16T23:37:57.134Z,35.33
2022-11-16T23:39:59.174Z,30.98
2022-11-16T23:42:01.109Z,30.77
2022-11-16T23:44:03.087Z,30.13
2022-11-16T23:46:05.075Z,32.08
2022-11-16T23:50:08.810Z,28.30
2022-11-16T23:52:10.859Z,30.85
2022-11-16T23:54:12.659Z,28.13
2022-11-16T23:56:14.594Z,29.70
2022-11-16T23:58:16.685Z,29.58
